map of TKD home
Great Circle Mapper logo
TKD - Airport
Location
City:  Takoradi, Ghana
ICAO:DGTK
IATA:TKD

Details
Type:Airport (Aerodrome, Airfield)
Use:Military
Latitude:453'46"N (4.896056)
Longitude:146'29"W (-1.774755)
Datum:WGS 1984
Elevation:21 ft (6 m)
Variation:4.27W (WMM2015 magnetic declination)
0.11 annual change
Runways:1
Longest:5745 × 148 ft (1751 × 45 m), paved

Time
Time Zone:UTC+0
Local Time:

Weather
METAR:DGTK 051000Z 23008KT 9999 FEW014 32/25 Q1014 NOSIG
TAF:DGTK 051000Z 0512/0618 23005G15KT 9999 FEW014
TEMPO 0514/0518 SCT100 FEW030CB
TEMPO 0521/0523 CAVOK
BECMG 0601/0603 00000KT FEW010

Related Locations
Nearby:
Farthest:AIS: 12250 mi / 19714 km
Arorae Island, KI

Find:

   beyond  
but within

Other Information
Maps:
NOTAMs:
Links:
Sources:

  
flag of Ghana   

Sectional Chart

Flight Planning
at skyvector.com

Satellite Image

Google Maps Satellite view

 

Copyright © 2004-2016 Karl L. Swartz. All rights reserved.
The Great Circle Mapper name and logo are trademarks of the Great Circle Mapper.
All other trademarks mentioned herein belong to their respective owners.
Please see credits for attibutions and further copyright information.

  Follow gcmap on Facebook Follow gcmap on Twitter Follow gcmap on Google+ GCmap on LinkedIn

hCard Microformat

Geo Microformat